Latest Weather Observations for Ouse

IDT60801

Issued at 6:01 pm EST Friday 27 May 2016 (issued every 30 minutes, with the page automatically refreshed every 10 minutes)

About weather observations | Map of weather stations | Latest weather observations for TAS | Other Formats
Station Details ID: 095048 Name: OUSE FIRE STATION Lat: -42.48 Lon: 146.71 Height: 90.0 m
Data from the previous 72 hours. | See also: Recent months at Ouse
Date/Time
EST
Temp
°C
App
Temp
°C
Dew
Point
Rel
Hum
%
Delta-T
°C
Wind Press
QNH
hPa
Press
MSL
hPa
Rain
since 9 am
mm
Dir
 
Spd
km/h
Gust
km/h
Spd
kts
Gust
kts
27/06:00pm 7.5 6.9 7.4 99 0.0 CALM 0 0 0 0 1006.7 1006.8 0.0
27/05:30pm 8.0 7.4 7.4 96 0.3 CALM 0 0 0 0 1006.3 1006.4 0.0
27/05:00pm 9.4 8.9 7.8 90 0.8 CALM 0 0 0 0 1005.9 1006.0 0.0
27/04:30pm 10.0 8.5 6.7 80 1.6 N 4 9 2 5 1005.7 1005.8 0.0
27/04:00pm 10.6 8.9 7.7 82 1.4 N 6 11 3 6 1005.4 1005.5 0.0
27/03:30pm 11.1 10.2 6.0 71 2.4 CALM 0 0 0 0 1005.1 1005.2 0.0
27/03:00pm 11.7 10.4 6.2 69 2.6 N 2 7 1 4 1004.9 1005.0 0.0
27/02:30pm 11.4 10.6 6.7 73 2.2 CALM 0 6 0 3 1004.6 1004.8 0.0
27/02:00pm 11.1 10.5 7.2 77 1.9 CALM 0 0 0 0 1004.5 1004.7 0.0
27/01:30pm 10.6 10.1 7.7 82 1.4 CALM 0 0 0 0 1004.5 1004.7 0.0
27/01:00pm 9.8 9.1 8.6 92 0.6 N 2 7 1 4 1004.8 1004.9 0.0
27/12:30pm 9.2 8.9 8.7 97 0.2 CALM 0 0 0 0 1005.0 1005.1 0.0
27/12:00pm 8.3 7.9 8.2 99 0.0 CALM 0 0 0 0 1005.1 1005.2 0.0
27/11:30am 7.5 6.9 7.5 100 0.0 CALM 0 0 0 0 1005.2 1005.3 0.0
27/11:00am 6.7 5.9 6.7 100 0.0 CALM 0 0 0 0 1005.4 1005.5 0.0
27/10:30am 5.9 5.0 5.9 100 0.0 CALM 0 0 0 0 1005.5 1005.6 0.0
27/10:00am 5.1 4.0 5.1 100 0.0 CALM 0 0 0 0 1005.4 1005.5 0.0
27/09:30am 4.3 3.0 4.3 100 0.0 CALM 0 0 0 0 1005.3 1005.4 0.0
27/09:00am 3.4 2.0 3.4 100 0.0 CALM 0 0 0 0 1005.2 1005.3 -
27/08:30am 2.6 1.0 2.6 100 0.0 CALM 0 0 0 0 1005.0 1005.1 -
27/08:00am 2.1 0.4 2.1 100 0.0 CALM 0 0 0 0 1004.8 1004.9 -
27/07:30am 2.0 0.3 2.0 100 0.0 CALM 0 0 0 0 1004.5 1004.7 -
27/07:00am 1.9 0.2 1.9 100 0.0 CALM 0 0 0 0 1004.2 1004.4 -
27/06:30am 2.1 0.4 2.1 100 0.0 CALM 0 0 0 0 1004.1 1004.3 -
27/06:00am 2.3 0.7 2.3 100 0.0 CALM 0 0 0 0 1004.0 1004.2 -
27/05:30am 2.5 0.9 2.5 100 0.0 CALM 0 0 0 0 1004.1 1004.3 -
27/05:00am 2.6 1.0 2.6 100 0.0 CALM 0 0 0 0 1004.1 1004.3 -
27/04:30am 2.7 1.1 2.7 100 0.0 CALM 0 0 0 0 1004.0 1004.2 -
27/04:00am 2.9 1.4 2.9 100 0.0 CALM 0 0 0 0 1003.7 1003.9 -
27/03:30am 2.7 1.1 2.7 100 0.0 CALM 0 0 0 0 1003.7 1003.9 -
27/03:00am 3.0 1.5 3.0 100 0.0 CALM 0 0 0 0 1003.6 1003.8 0.0
27/02:30am 2.7 0.8 2.7 100 0.0 N 2 7 1 4 1003.7 1003.9 -
27/02:00am 2.8 0.1 2.8 100 0.0 N 6 9 3 5 1003.5 1003.7 -
27/01:30am 2.7 1.1 2.7 100 0.0 CALM 0 0 0 0 1003.4 1003.6 -
27/01:00am 3.2 1.7 3.2 100 0.0 CALM 0 0 0 0 1003.3 1003.5 -
27/12:30am 3.6 2.2 3.6 100 0.0 CALM 0 0 0 0 1003.4 1003.6 -
27/12:00am 3.9 2.6 3.9 100 0.0 CALM 0 0 0 0 1003.3 1003.5 -
 
Date/Time
EST
Temp
°C
App
Temp
°C
Dew
Point
Rel
Hum
%
Delta-T
°C
Wind Press
QNH
hPa
Press
MSL
hPa
Rain
since 9 am
mm
Dir
 
Spd
km/h
Gust
km/h
Spd
kts
Gust
kts
26/11:30pm 3.7 1.2 3.7 100 0.0 N 6 7 3 4 1003.5 1003.7 -
26/11:00pm 3.9 2.6 3.9 100 0.0 CALM 0 0 0 0 1003.6 1003.8 -
26/10:30pm 3.5 2.1 3.5 100 0.0 CALM 0 0 0 0 1003.4 1003.6 -
26/10:00pm 4.1 2.8 4.1 100 0.0 CALM 0 0 0 0 1003.5 1003.7 -
26/09:30pm 4.4 3.2 4.4 100 0.0 CALM 0 0 0 0 1003.2 1003.4 -
26/09:00pm 4.9 3.8 4.9 100 0.0 CALM 0 0 0 0 1003.2 1003.4 0.0
26/08:30pm 5.1 2.9 5.1 100 0.0 W 6 7 3 4 1003.1 1003.3 -
26/08:00pm 5.5 3.3 5.5 100 0.0 SSE 6 9 3 5 1003.0 1003.2 -
26/07:30pm 6.0 4.3 6.0 100 0.0 SSE 4 6 2 3 1002.8 1003.0 -
26/07:00pm 6.4 4.4 6.4 100 0.0 SSE 6 7 3 4 1002.8 1003.0 -
26/06:30pm 6.3 5.5 6.3 100 0.0 CALM 0 0 0 0 1002.6 1002.8 -
26/06:00pm 7.0 6.3 7.0 100 0.0 CALM 0 0 0 0 1002.2 1002.4 -
26/05:30pm 7.4 6.8 7.4 100 0.0 CALM 0 0 0 0 1001.8 1001.9 -
26/05:00pm 8.6 8.3 8.6 100 0.0 CALM 0 0 0 0 1001.6 1001.7 -
26/04:30pm 9.1 8.9 9.1 100 0.0 CALM 0 0 0 0 1001.5 1001.6 -
26/04:00pm 9.4 8.2 9.4 100 0.0 SSE 6 7 3 4 1001.4 1001.5 -
26/03:30pm 9.5 8.3 9.5 100 0.0 SSE 6 7 3 4 1001.3 1001.4 -
26/03:00pm 9.5 8.3 9.5 100 0.0 SSE 6 7 3 4 1001.2 1001.3 -
26/02:30pm 9.1 8.5 9.1 100 0.0 SSE 2 6 1 3 1001.2 1001.3 -
26/02:00pm 9.1 7.6 8.5 96 0.3 SE 6 7 3 4 1001.3 1001.4 -
26/01:00pm 9.6 8.1 6.7 82 1.4 NE 4 7 2 4 1001.9 1002.0 0.0
26/12:30pm - - - - - NE 2 6 1 3 1001.9 1002.0 0.0
26/12:00pm - - - - - CALM 0 6 0 3 1002.0 1002.2 0.0
26/11:30am 7.0 6.2 6.3 95 0.3 CALM 0 0 0 0 1002.3 1002.5 0.0
26/11:00am 7.0 6.3 7.0 100 0.0 CALM 0 0 0 0 1002.6 1002.8 0.0
26/10:30am 5.7 4.7 5.7 100 0.0 CALM 0 0 0 0 1002.9 1003.1 0.0
26/10:00am 4.5 3.3 4.5 100 0.0 CALM 0 0 0 0 1003.2 1003.4 0.0
26/09:30am 3.3 1.9 3.3 100 0.0 CALM 0 6 0 3 1003.2 1003.4 0.0
26/09:00am 2.5 -0.2 2.5 100 0.0 NE 6 7 3 4 1003.3 1003.5 0.2
26/08:30am 1.9 0.2 1.8 99 0.0 CALM 0 7 0 4 1003.5 1003.7 0.2
26/08:00am 1.8 -0.7 1.7 99 0.0 NNW 4 9 2 5 1003.3 1003.5 0.2
26/07:30am 1.7 -1.4 1.6 99 0.0 NE 7 9 4 5 1003.3 1003.5 0.0
26/07:00am 1.7 -1.4 1.6 99 0.0 SSE 7 11 4 6 1002.8 1003.0 0.0
26/06:30am 2.1 0.0 2.0 99 0.0 S 2 9 1 5 1003.0 1003.2 0.0
26/06:00am 2.6 1.0 2.2 97 0.2 CALM 0 0 0 0 1002.6 1002.8 0.0
26/05:30am 3.4 1.5 3.0 97 0.2 S 2 7 1 4 1002.5 1002.7 0.0
26/05:00am 4.6 3.4 4.5 99 0.0 CALM 0 0 0 0 1002.5 1002.7 0.0
26/04:30am 4.8 3.2 4.7 99 0.0 SE 2 7 1 4 1002.5 1002.7 0.0
26/04:00am 4.8 3.6 4.7 99 0.0 CALM 0 0 0 0 1002.7 1002.9 0.0
26/03:30am 4.8 3.2 4.7 99 0.0 SW 2 6 1 3 1002.5 1002.7 0.0
26/03:00am 4.6 3.4 4.5 99 0.0 CALM 0 0 0 0 1002.4 1002.6 0.0
26/02:30am 4.5 3.3 4.4 99 0.0 CALM 0 0 0 0 1002.6 1002.8 0.0
26/02:00am 4.3 1.9 4.2 99 0.0 NNW 6 7 3 4 1002.4 1002.6 0.0
26/01:30am 4.0 2.7 3.9 99 0.0 CALM 0 0 0 0 1002.5 1002.7 0.0
26/01:00am 3.7 1.5 3.6 99 0.0 NNW 4 7 2 4 1002.4 1002.6 0.0
26/12:30am 2.7 -0.2 2.6 99 0.0 NNW 7 11 4 6 1002.9 1003.1 0.0
26/12:00am 2.3 -0.7 2.2 99 0.0 ENE 7 9 4 5 1003.0 1003.2 0.0
 
Date/Time
EST
Temp
°C
App
Temp
°C
Dew
Point
Rel
Hum
%
Delta-T
°C
Wind Press
QNH
hPa
Press
MSL
hPa
Rain
since 9 am
mm
Dir
 
Spd
km/h
Gust
km/h
Spd
kts
Gust
kts
25/11:30pm 2.6 1.0 2.5 99 0.0 CALM 0 0 0 0 1003.1 1003.3 0.0
25/11:00pm 2.9 1.4 2.8 99 0.0 CALM 0 6 0 3 1003.4 1003.6 0.0
25/10:30pm 3.1 1.2 3.0 99 0.0 SSW 2 7 1 4 1003.6 1003.8 0.0
25/10:00pm 3.3 1.8 2.9 97 0.2 CALM 0 0 0 0 1003.9 1004.1 0.0
25/09:30pm 3.9 2.5 3.6 98 0.1 CALM 0 0 0 0 1004.0 1004.2 0.0
25/09:00pm 4.3 2.9 3.7 96 0.3 CALM 0 0 0 0 1004.1 1004.3 0.0
25/08:30pm 4.5 3.2 3.9 96 0.3 CALM 0 0 0 0 1004.2 1004.4 0.0
25/08:00pm 4.6 3.2 3.7 94 0.4 CALM 0 0 0 0 1004.4 1004.6 0.0
25/07:30pm 5.1 3.8 4.1 93 0.4 CALM 0 0 0 0 1004.6 1004.8 0.0
25/07:00pm 5.0 2.9 3.7 91 0.5 SSE 4 7 2 4 1004.8 1004.9 0.0
25/06:30pm 5.7 4.4 4.2 90 0.6 CALM 0 0 0 0 1005.1 1005.2 0.0
25/06:00pm 6.1 4.9 4.4 89 0.7 CALM 0 0 0 0 1005.2 1005.3 0.0
25/05:30pm 6.3 5.1 4.5 88 0.8 CALM 0 0 0 0 1005.4 1005.5 0.0
25/05:00pm 6.4 3.9 3.6 82 1.2 NE 6 7 3 4 1005.5 1005.6 0.0
25/04:30pm 6.8 5.4 3.6 80 1.4 CALM 0 0 0 0 1005.6 1005.7 0.0
25/04:00pm 7.1 4.5 3.3 77 1.6 SSE 6 7 3 4 1005.9 1006.0 0.0
25/03:30pm 7.2 5.0 3.3 76 1.7 SSE 4 7 2 4 1006.3 1006.4 0.0
25/03:00pm 7.1 5.5 2.6 73 1.9 CALM 0 0 0 0 1006.7 1006.8 0.0
25/02:30pm 6.9 4.3 3.0 76 1.6 SE 6 7 3 4 1007.0 1007.1 0.0
25/02:00pm 7.1 5.2 2.6 73 1.9 S 2 7 1 4 1007.5 1007.6 0.0
25/01:30pm 6.9 4.9 2.4 73 1.9 SSW 2 7 1 4 1007.8 1007.9 0.0
25/01:00pm 6.1 4.1 2.2 76 1.6 SSW 2 7 1 4 1008.3 1008.4 0.0
25/12:30pm 5.3 3.3 2.5 82 1.1 ESE 2 6 1 3 1009.1 1009.2 0.0
25/12:00pm 4.7 3.1 2.4 85 0.9 CALM 0 0 0 0 1009.4 1009.5 0.0
25/11:30am 4.5 1.8 2.5 87 0.8 SSE 6 9 3 5 1010.2 1010.3 0.0
25/11:00am 4.4 1.5 2.6 88 0.7 SE 7 9 4 5 1011.0 1011.1 0.0
25/10:30am 2.7 0.4 2.6 99 0.0 SE 4 7 2 4 1011.9 1012.1 0.0
25/10:00am 1.3 -1.3 1.2 99 0.0 ESE 4 7 2 4 1012.1 1012.3 0.0
25/09:30am 0.3 -2.4 0.2 99 0.0 SSE 4 6 2 3 1012.9 1013.1 0.0
25/09:00am -0.3 -4.1 -0.4 99 0.0 SE 9 11 5 6 1013.2 1013.4 0.0
25/08:30am -0.8 -3.3 -0.9 99 0.0 N 2 7 1 4 1013.6 1013.8 0.0
25/08:00am -1.4 -3.6 -1.5 99 0.0 CALM 0 2 0 1 1013.7 1013.9 0.0
25/07:30am -1.7 -4.7 -1.8 99 0.0 NW 4 7 2 4 1013.4 1013.6 0.0
25/07:00am -1.3 -4.8 -1.4 99 0.0 NNE 7 9 4 5 1013.3 1013.5 0.0
25/06:30am -1.4 -4.0 -1.5 99 0.0 SSW 2 6 1 3 1013.1 1013.3 0.0
25/06:00am -1.2 -3.4 -1.3 99 0.0 CALM 0 0 0 0 1013.6 1013.8 0.0
25/05:30am -1.3 -5.2 -1.4 99 0.0 SSE 9 15 5 8 1013.9 1014.1 0.0
25/05:00am -1.5 -3.7 -1.6 99 0.0 CALM 0 0 0 0 1014.1 1014.3 0.0
25/04:30am -1.3 -3.5 -1.4 99 0.0 CALM 0 0 0 0 1014.4 1014.6 0.0
25/04:00am -1.1 -3.3 -1.2 99 0.0 CALM 0 0 0 0 1014.2 1014.4 0.0
25/03:30am -1.0 -4.5 -1.1 99 0.0 NNE 7 9 4 5 1013.9 1014.1 0.0
25/03:00am -0.7 -2.8 -0.8 99 0.0 CALM 0 0 0 0 1013.9 1014.1 0.0
25/02:30am -0.6 -3.4 -0.7 99 0.0 SSE 4 6 2 3 1014.0 1014.2 0.0
25/02:00am -0.4 -3.8 -0.5 99 0.0 SSE 7 9 4 5 1014.3 1014.5 0.0
25/01:30am -0.2 -4.0 -0.5 98 0.1 SE 9 9 5 5 1014.7 1014.9 0.0
25/01:00am 0.0 -3.2 -0.3 98 0.1 WNW 6 7 3 4 1015.0 1015.2 0.0
25/12:30am 0.4 -2.3 0.0 97 0.1 N 4 7 2 4 1015.3 1015.5 0.0
25/12:00am 0.9 -1.0 0.5 97 0.1 CALM 0 0 0 0 1015.8 1016.0 0.0
 
Date/Time
EST
Temp
°C
App
Temp
°C
Dew
Point
Rel
Hum
%
Delta-T
°C
Wind Press
QNH
hPa
Press
MSL
hPa
Rain
since 9 am
mm
Dir
 
Spd
km/h
Gust
km/h
Spd
kts
Gust
kts
24/11:30pm 1.2 -2.4 0.6 96 0.2 SE 9 13 5 7 1016.0 1016.2 0.0
24/11:00pm 1.4 -1.8 0.8 96 0.2 SE 7 13 4 7 1015.9 1016.1 0.0
24/10:30pm 1.8 -1.7 1.2 96 0.2 S 9 17 5 9 1016.2 1016.3 0.0
24/10:00pm 2.2 -0.7 1.3 94 0.3 SE 6 7 3 4 1016.4 1016.5 0.0
24/09:30pm 2.4 -0.5 1.4 93 0.4 S 6 6 3 3 1016.6 1016.7 0.0
24/09:00pm 2.7 0.6 1.4 91 0.5 S 2 7 1 4 1016.6 1016.7 0.0
24/08:30pm 3.3 -0.1 2.0 91 0.5 ESE 9 11 5 6 1016.4 1016.5 0.0
24/08:00pm 3.6 0.8 2.0 89 0.6 ESE 6 9 3 5 1016.5 1016.6 0.0
24/07:30pm 4.0 1.0 1.7 85 0.9 N 7 9 4 5 1016.3 1016.4 0.0
24/07:00pm 5.1 1.7 1.8 79 1.3 WNW 9 15 5 8 1016.0 1016.2 0.0
24/06:30pm 5.5 1.6 1.4 75 1.6 WNW 11 13 6 7 1015.8 1016.0 0.0

Other Formats:

Comma delimited format used in spreadsheet applications
http://www.bom.gov.au/fwo/IDT60801/IDT60801.94957.axf

JavaScript Object Notation format (JSON) in row-major order
http://www.bom.gov.au/fwo/IDT60801/IDT60801.94957.json